Time;durP1;ratioP1;P1;durP2;ratioP2;P2;SDS_P1;SDS_P2;PMS_P1;PMS_P2;Temp;Humidity;BMP_temperature;BMP_pressure;BME280_temperature;BME280_humidity;BME280_pressure;Samples;Min_cycle;Max_cycle;Signal;HPM_P1;HPM_P2
2020/12/26 00:01:17;;;;;;;30.67;16.90;;;-2.20;92.40;;;;;;5012247;28;20049;-65
2020/12/26 00:03:44;;;;;;;35.95;18.73;;;-2.20;92.20;;;;;;5011279;28;20037;-66
2020/12/26 00:06:14;;;;;;;36.20;19.80;;;-2.20;92.40;;;;;;5013012;28;20025;-65
2020/12/26 00:08:40;;;;;;;38.45;21.90;;;-2.20;92.30;;;;;;5013457;28;20034;-65
2020/12/26 00:11:10;;;;;;;33.30;18.87;;;-2.20;92.30;;;;;;5012709;28;20530;-65
2020/12/26 00:13:36;;;;;;;31.47;18.60;;;-2.20;92.50;;;;;;4994901;28;20038;-65
2020/12/26 00:16:06;;;;;;;31.90;16.77;;;-2.10;92.70;;;;;;5012505;28;20326;-65
2020/12/26 00:18:32;;;;;;;26.63;16.53;;;-2.10;92.70;;;;;;5013129;28;20124;-65
2020/12/26 00:20:59;;;;;;;29.60;15.77;;;-2.00;92.60;;;;;;5013172;28;20096;-65
2020/12/26 00:23:25;;;;;;;28.80;16.47;;;-2.00;92.50;;;;;;5012121;28;20176;-65
2020/12/26 00:25:51;;;;;;;28.67;17.63;;;-1.90;92.50;;;;;;5012621;28;20133;-65
2020/12/26 00:28:17;;;;;;;27.70;16.43;;;-1.90;92.50;;;;;;5011227;28;20049;-65
2020/12/26 00:30:43;;;;;;;30.47;17.07;;;-1.90;92.50;;;;;;5012905;28;20550;-65
2020/12/26 00:33:09;;;;;;;34.00;18.33;;;-1.90;92.40;;;;;;5012649;28;20128;-65
2020/12/26 00:35:34;;;;;;;30.57;16.50;;;-1.90;92.40;;;;;;5010613;28;20121;-65
2020/12/26 00:38:00;;;;;;;29.50;15.97;;;-1.90;92.50;;;;;;5012653;28;20049;-65
2020/12/26 00:40:26;;;;;;;26.37;14.80;;;-1.90;92.50;;;;;;5012374;28;20046;-65
2020/12/26 00:42:52;;;;;;;31.30;16.20;;;-1.90;92.60;;;;;;5012204;28;20037;-65
2020/12/26 00:45:18;;;;;;;30.30;16.50;;;-1.90;92.60;;;;;;4994843;28;20041;-65
2020/12/26 00:47:44;;;;;;;30.37;16.27;;;-1.90;92.70;;;;;;5012126;28;20044;-65
2020/12/26 00:50:10;;;;;;;29.03;16.30;;;-1.80;92.70;;;;;;5011246;28;20125;-65
2020/12/26 00:52:36;;;;;;;29.90;16.93;;;-1.80;92.70;;;;;;5010563;28;20514;-65
2020/12/26 00:55:03;;;;;;;32.50;17.93;;;-1.80;92.80;;;;;;5012171;28;20041;-65
2020/12/26 00:57:29;;;;;;;28.37;16.53;;;-1.70;92.90;;;;;;4994999;28;20036;-65
2020/12/26 00:59:55;;;;;;;26.57;15.87;;;-1.60;93.00;;;;;;5010655;28;20038;-65
2020/12/26 01:02:22;;;;;;;28.93;15.27;;;-1.60;92.90;;;;;;5010813;28;20383;-65
2020/12/26 01:04:52;;;;;;;29.95;15.98;;;-1.50;92.80;;;;;;5011623;28;20072;-65
2020/12/26 01:07:18;;;;;;;40.90;22.40;;;-1.50;92.80;;;;;;5012163;28;20530;-65
2020/12/26 01:09:44;;;;;;;44.37;24.23;;;-1.50;93.00;;;;;;5010786;28;20095;-65
2020/12/26 01:12:09;;;;;;;34.73;20.87;;;-1.40;93.10;;;;;;5011306;28;20053;-65
2020/12/26 01:14:35;;;;;;;35.30;19.23;;;-1.40;93.10;;;;;;5011745;28;20506;-65
2020/12/26 01:17:01;;;;;;;34.70;18.87;;;-1.30;93.00;;;;;;5011452;28;20453;-65
2020/12/26 01:19:29;;;;;;;27.63;17.47;;;-1.30;92.90;;;;;;5010733;28;20030;-65
2020/12/26 01:21:55;;;;;;;29.67;16.87;;;-1.30;92.80;;;;;;5011029;28;20104;-67
2020/12/26 01:24:22;;;;;;;31.87;18.33;;;-1.30;92.70;;;;;;5010225;28;20053;-65
2020/12/26 01:26:49;;;;;;;32.33;18.33;;;-1.30;92.70;;;;;;5010423;28;20503;-65
2020/12/26 01:29:16;;;;;;;38.60;20.23;;;-1.40;92.70;;;;;;5009946;28;20450;-65
2020/12/26 01:31:42;;;;;;;33.87;17.97;;;-1.40;92.70;;;;;;5011312;28;20060;-65
2020/12/26 01:34:08;;;;;;;27.97;16.87;;;-1.40;92.70;;;;;;5010453;28;20029;-65
2020/12/26 01:36:34;;;;;;;28.73;16.97;;;-1.40;92.80;;;;;;5011127;28;20030;-65
2020/12/26 01:38:59;;;;;;;29.10;17.20;;;-1.40;92.90;;;;;;5011634;28;20030;-65
2020/12/26 01:41:25;;;;;;;31.53;17.03;;;-1.40;93.00;;;;;;5011671;28;20065;-74
2020/12/26 01:43:59;;;;;;;28.80;17.50;;;-1.30;93.10;;;;;;5011343;28;20125;-74
2020/12/26 01:46:32;;;;;;;26.83;15.43;;;-1.30;93.20;;;;;;5009420;28;20076;-73
2020/12/26 01:49:00;;;;;;;26.10;14.97;;;-1.20;93.30;;;;;;5011369;28;20034;-74
2020/12/26 01:51:27;;;;;;;28.27;14.87;;;-1.20;93.20;;;;;;5010803;28;20072;-73
2020/12/26 01:53:53;;;;;;;29.20;13.93;;;-1.10;93.30;;;;;;5010906;28;20061;-74
2020/12/26 01:56:21;;;;;;;23.73;13.47;;;-1.10;93.20;;;;;;5009576;28;20042;-74
2020/12/26 01:58:46;;;;;;;24.40;14.03;;;-1.10;93.10;;;;;;5010657;28;20053;-74
2020/12/26 02:01:12;;;;;;;30.43;15.00;;;-1.10;93.00;;;;;;5011245;28;20490;-74
2020/12/26 02:03:42;;;;;;;27.23;15.90;;;-1.10;93.20;;;;;;5010452;28;20061;-74
2020/12/26 02:06:08;;;;;;;28.17;15.23;;;-1.00;93.20;;;;;;5009468;28;20518;-74
2020/12/26 02:08:38;;;;;;;25.00;14.60;;;-1.00;93.20;;;;;;5011108;28;20033;-75
2020/12/26 02:11:05;;;;;;;24.13;13.73;;;-1.00;93.00;;;;;;5010666;28;20038;-74
2020/12/26 02:13:32;;;;;;;23.63;14.20;;;-1.00;92.70;;;;;;5010578;28;20053;-74
2020/12/26 02:16:08;;;;;;;24.90;13.73;;;-1.10;92.60;;;;;;5010432;28;20042;-74
2020/12/26 02:18:34;;;;;;;22.33;12.67;;;-1.10;92.70;;;;;;5009561;28;20034;-74
2020/12/26 02:21:01;;;;;;;27.10;13.27;;;-1.20;92.70;;;;;;5009388;28;20038;-74
2020/12/26 02:23:27;;;;;;;24.93;13.80;;;-1.30;92.70;;;;;;5010685;28;20033;-74
2020/12/26 02:25:57;;;;;;;25.20;13.80;;;-1.30;92.70;;;;;;5010132;28;20563;-74
2020/12/26 02:28:23;;;;;;;24.50;13.43;;;-1.40;92.70;;;;;;5010766;28;20042;-74
2020/12/26 02:30:53;;;;;;;29.67;14.60;;;-1.40;92.80;;;;;;4993008;28;20049;-74
2020/12/26 02:33:19;;;;;;;27.70;14.80;;;-1.40;92.80;;;;;;5009992;28;20041;-74
2020/12/26 02:35:49;;;;;;;26.27;14.13;;;-1.40;92.90;;;;;;5010471;28;20052;-74
2020/12/26 02:38:15;;;;;;;30.37;15.83;;;-1.40;93.20;;;;;;5009200;28;20569;-73
2020/12/26 02:40:42;;;;;;;34.53;19.17;;;-1.50;93.10;;;;;;5010895;28;20070;-74
2020/12/26 02:43:17;;;;;;;29.13;17.57;;;-1.50;93.30;;;;;;5009326;28;20404;-74
2020/12/26 02:45:43;;;;;;;27.33;16.00;;;-1.30;93.80;;;;;;5012511;28;20062;-74
2020/12/26 02:48:08;;;;;;;35.37;18.80;;;-1.20;93.80;;;;;;5013606;28;20069;-75
2020/12/26 02:50:34;;;;;;;34.40;19.97;;;-1.10;93.80;;;;;;5012995;28;20415;-74
2020/12/26 02:53:00;;;;;;;36.07;20.13;;;-1.00;93.80;;;;;;5014681;28;20041;-74
2020/12/26 02:55:25;;;;;;;37.27;21.27;;;-0.90;93.80;;;;;;5013227;28;20033;-74
2020/12/26 02:57:51;;;;;;;45.83;23.97;;;-0.80;93.60;;;;;;5014037;28;20046;-74
2020/12/26 03:00:17;;;;;;;40.50;22.67;;;-0.80;93.50;;;;;;5014541;28;20047;-74
2020/12/26 03:02:43;;;;;;;42.97;24.47;;;-0.80;93.40;;;;;;5013104;28;20442;-74
2020/12/26 03:05:09;;;;;;;42.63;24.13;;;-0.80;93.30;;;;;;5014365;28;20034;-75
2020/12/26 03:07:35;;;;;;;43.70;23.97;;;-0.80;93.30;;;;;;5014512;28;20034;-74
2020/12/26 03:10:02;;;;;;;45.10;24.50;;;-0.80;93.50;;;;;;5013845;28;20107;-74
2020/12/26 03:12:28;;;;;;;41.53;24.13;;;-0.80;93.30;;;;;;5013797;28;20031;-74
2020/12/26 03:14:53;;;;;;;43.17;23.67;;;-0.80;93.30;;;;;;5013541;28;20044;-74
2020/12/26 03:17:19;;;;;;;47.00;25.17;;;-0.80;93.30;;;;;;5014109;28;20038;-74
2020/12/26 03:19:45;;;;;;;45.23;25.00;;;-0.80;93.40;;;;;;5012759;28;20509;-75
2020/12/26 03:22:10;;;;;;;44.03;25.27;;;-0.80;93.50;;;;;;5013264;28;20069;-74
2020/12/26 03:24:37;;;;;;;43.10;23.93;;;-0.80;93.60;;;;;;5012427;28;20050;-74
2020/12/26 03:27:02;;;;;;;45.13;23.93;;;-0.80;93.60;;;;;;5013245;28;20491;-74
2020/12/26 03:29:28;;;;;;;38.60;22.83;;;-0.70;93.50;;;;;;5013816;28;20100;-74
2020/12/26 03:31:54;;;;;;;40.87;22.63;;;-0.70;93.50;;;;;;5013442;28;20038;-74
2020/12/26 03:34:20;;;;;;;41.57;21.93;;;-0.70;93.50;;;;;;5013126;28;20053;-74
2020/12/26 03:36:46;;;;;;;39.23;22.60;;;-0.70;93.50;;;;;;5013659;28;20506;-74
2020/12/26 03:39:11;;;;;;;37.23;21.57;;;-0.70;93.50;;;;;;5013333;28;20111;-70
2020/12/26 03:41:37;;;;;;;35.87;20.53;;;-0.70;93.50;;;;;;5013499;28;20293;-74
2020/12/26 03:44:03;;;;;;;38.23;21.87;;;-0.70;93.60;;;;;;5012306;28;20033;-74
2020/12/26 03:46:29;;;;;;;37.57;20.87;;;-0.70;93.60;;;;;;5012750;28;20030;-74
2020/12/26 03:48:54;;;;;;;37.73;21.13;;;-0.60;93.70;;;;;;5013437;28;20065;-74
2020/12/26 03:51:20;;;;;;;38.03;21.23;;;-0.60;93.70;;;;;;5013409;28;20041;-74
2020/12/26 03:53:46;;;;;;;34.33;21.07;;;-0.50;93.80;;;;;;5012826;28;20036;-74
2020/12/26 03:56:18;;;;;;;36.70;20.20;;;-0.50;93.80;;;;;;5012799;28;20053;-75
2020/12/26 03:58:44;;;;;;;36.90;19.83;;;-0.50;93.80;;;;;;5012508;28;20403;-74
2020/12/26 04:01:10;;;;;;;35.93;20.50;;;-0.40;93.80;;;;;;5011993;28;20491;-74
2020/12/26 04:03:39;;;;;;;34.30;19.67;;;-0.40;93.70;;;;;;5012568;28;20033;-73
2020/12/26 04:06:04;;;;;;;30.40;18.53;;;-0.40;93.70;;;;;;5011711;28;20056;-74
2020/12/26 04:08:30;;;;;;;32.83;19.60;;;-0.40;93.60;;;;;;5013200;28;20668;-74
2020/12/26 04:10:56;;;;;;;33.23;18.87;;;-0.40;93.60;;;;;;5012642;28;20041;-74
2020/12/26 04:13:22;;;;;;;36.90;21.33;;;-0.40;93.70;;;;;;5012692;28;20391;-74
2020/12/26 04:15:48;;;;;;;34.67;19.33;;;-0.30;93.70;;;;;;5011117;28;20041;-74
2020/12/26 04:18:14;;;;;;;34.23;18.70;;;-0.30;93.70;;;;;;5011700;28;20043;-74
2020/12/26 04:20:39;;;;;;;35.87;20.30;;;-0.30;93.80;;;;;;5013032;28;20136;-74
2020/12/26 04:23:05;;;;;;;32.80;18.63;;;-0.30;93.80;;;;;;5010750;28;20064;-74
2020/12/26 04:25:31;;;;;;;33.57;18.67;;;-0.30;93.80;;;;;;5011323;28;20049;-75
2020/12/26 04:27:57;;;;;;;36.33;20.07;;;-0.20;93.90;;;;;;5012651;28;20049;-74
2020/12/26 04:30:23;;;;;;;41.03;18.87;;;-0.20;94.10;;;;;;5012856;28;20038;-74
2020/12/26 04:32:50;;;;;;;32.13;17.70;;;-0.20;93.90;;;;;;5011207;28;20133;-74
2020/12/26 04:35:45;;;;;;;30.87;18.47;;;-0.10;93.90;;;;;;5012035;28;20040;-75
2020/12/26 04:38:11;;;;;;;31.00;19.10;;;-0.10;94.20;;;;;;5012654;28;20034;-74
2020/12/26 04:40:37;;;;;;;32.50;19.40;;;0.00;94.00;;;;;;5012819;28;20446;-74
2020/12/26 04:43:06;;;;;;;32.07;18.30;;;0.00;93.90;;;;;;5012397;28;20064;-74
2020/12/26 04:45:32;;;;;;;31.63;18.93;;;0.10;94.00;;;;;;5012259;28;20113;-75
2020/12/26 04:48:03;;;;;;;33.67;18.80;;;0.10;93.90;;;;;;5012579;28;20049;-74
2020/12/26 04:50:31;;;;;;;33.08;18.70;;;0.10;93.90;;;;;;5011933;28;20046;-74
2020/12/26 04:53:00;;;;;;;39.43;19.00;;;0.10;93.90;;;;;;5011849;28;20513;-74
2020/12/26 04:55:33;;;;;;;34.27;18.87;;;0.20;94.20;;;;;;5010296;28;20088;-74
2020/12/26 04:58:08;;;;;;;31.17;18.00;;;0.20;94.00;;;;;;5012168;28;20034;-74
2020/12/26 05:00:35;;;;;;;29.73;17.30;;;0.20;93.90;;;;;;4994280;28;20079;-74
2020/12/26 05:03:04;;;;;;;33.80;18.07;;;0.30;94.10;;;;;;5011935;28;20105;-74
2020/12/26 05:05:50;;;;;;;34.27;18.23;;;0.30;93.90;;;;;;5011381;28;20033;-73
2020/12/26 05:08:16;;;;;;;30.73;18.13;;;0.30;93.90;;;;;;5009761;28;20030;-74
2020/12/26 05:10:43;;;;;;;29.87;16.80;;;0.30;94.00;;;;;;5011292;28;20415;-74
2020/12/26 05:13:12;;;;;;;32.00;16.97;;;0.30;94.00;;;;;;5011435;28;20407;-74
2020/12/26 05:15:38;;;;;;;29.23;17.60;;;0.40;94.00;;;;;;5009638;28;20462;-75
2020/12/26 05:18:05;;;;;;;32.10;18.50;;;0.40;94.00;;;;;;5012085;28;20495;-74
2020/12/26 05:20:31;;;;;;;34.00;19.37;;;0.40;93.90;;;;;;5011900;28;20423;-75
2020/12/26 05:23:08;;;;;;;37.10;20.67;;;0.40;94.00;;;;;;5011197;28;20117;-74
2020/12/26 05:25:37;;;;;;;36.10;20.23;;;0.40;94.10;;;;;;5011450;28;20068;-74
2020/12/26 05:28:09;;;;;;;35.63;19.20;;;0.50;94.20;;;;;;5011221;28;20677;-74
2020/12/26 05:30:36;;;;;;;32.43;17.97;;;0.50;94.20;;;;;;5011629;28;20103;-74
2020/12/26 05:33:05;;;;;;;35.60;18.30;;;0.60;94.20;;;;;;5010882;28;20413;-74
2020/12/26 05:35:47;;;;;;;30.83;17.37;;;0.60;94.20;;;;;;5011291;28;20033;-75
2020/12/26 05:38:23;;;;;;;30.03;16.67;;;0.70;94.20;;;;;;5009989;28;20097;-74
2020/12/26 05:40:54;;;;;;;30.67;16.67;;;0.70;94.10;;;;;;5011756;28;20046;-74
2020/12/26 05:43:32;;;;;;;28.70;16.03;;;0.70;94.00;;;;;;5010743;28;20514;-74
2020/12/26 05:45:58;;;;;;;33.57;18.07;;;0.70;93.90;;;;;;5010002;28;20052;-74
2020/12/26 05:48:34;;;;;;;33.23;18.07;;;0.60;93.90;;;;;;5010922;28;20038;-74
2020/12/26 05:51:00;;;;;;;33.37;17.93;;;0.60;94.00;;;;;;5011413;28;20129;-74
2020/12/26 05:53:27;;;;;;;34.80;18.43;;;0.60;94.00;;;;;;5010758;28;20112;-74
2020/12/26 05:55:54;;;;;;;30.90;17.27;;;0.70;94.10;;;;;;5011052;28;20129;-74
2020/12/26 05:58:21;;;;;;;33.40;18.90;;;0.70;94.20;;;;;;5010930;28;20082;-74
2020/12/26 06:00:48;;;;;;;35.87;17.73;;;0.70;94.50;;;;;;5011484;28;20029;-74
2020/12/26 06:03:32;;;;;;;33.70;17.17;;;0.80;94.40;;;;;;5009744;28;20038;-74
2020/12/26 06:06:03;;;;;;;30.87;17.70;;;0.80;94.30;;;;;;5010653;28;20037;-74
2020/12/26 06:08:29;;;;;;;34.13;19.10;;;0.80;94.50;;;;;;4993516;28;20384;-75
2020/12/26 06:11:00;;;;;;;32.60;18.23;;;0.90;94.30;;;;;;5009487;28;20034;-74
2020/12/26 06:13:28;;;;;;;34.67;17.65;;;0.90;94.30;;;;;;4993044;28;20521;-74
2020/12/26 06:15:57;;;;;;;32.17;19.17;;;1.00;94.30;;;;;;5010255;28;20449;-74
2020/12/26 06:18:24;;;;;;;32.47;16.63;;;1.00;94.30;;;;;;5011209;28;20034;-74
2020/12/26 06:20:52;;;;;;;29.47;16.23;;;1.00;94.30;;;;;;5009702;28;20038;-74
2020/12/26 06:23:20;;;;;;;29.53;16.27;;;1.00;94.30;;;;;;5010458;28;20030;-74
2020/12/26 06:25:47;;;;;;;29.60;16.27;;;1.10;94.30;;;;;;5010662;28;20072;-74
2020/12/26 06:28:30;;;;;;;26.07;15.80;;;1.10;94.30;;;;;;5010415;28;20038;-74
2020/12/26 06:31:05;;;;;;;33.97;18.60;;;1.10;94.30;;;;;;5010991;28;20080;-74
2020/12/26 06:33:48;;;;;;;29.27;15.37;;;1.10;94.30;;;;;;4992565;28;20041;-74
2020/12/26 06:36:14;;;;;;;27.63;16.50;;;1.10;94.40;;;;;;5008730;28;20467;-74
2020/12/26 06:38:41;;;;;;;28.73;16.43;;;1.20;94.40;;;;;;5010791;28;20120;-74
2020/12/26 06:41:14;;;;;;;30.57;15.93;;;1.20;94.40;;;;;;5010994;28;20053;-74
2020/12/26 06:44:06;;;;;;;29.37;15.80;;;1.20;94.40;;;;;;5008830;28;20038;-74
2020/12/26 06:46:32;;;;;;;24.87;14.47;;;1.30;94.40;;;;;;5005792;28;20038;-74
2020/12/26 06:48:58;;;;;;;27.67;15.43;;;1.30;94.40;;;;;;5010691;28;20053;-74
2020/12/26 06:51:42;;;;;;;23.90;14.60;;;1.30;94.60;;;;;;5009323;28;20340;-74
2020/12/26 06:54:08;;;;;;;23.27;14.77;;;1.30;94.40;;;;;;5010313;28;20372;-74
2020/12/26 06:56:34;;;;;;;25.70;15.00;;;1.40;94.40;;;;;;5010431;28;20060;-74
2020/12/26 06:59:02;;;;;;;26.33;14.40;;;1.30;94.40;;;;;;5010362;28;20507;-74
2020/12/26 07:01:28;;;;;;;26.43;15.07;;;1.40;94.40;;;;;;5009286;28;20038;-74
2020/12/26 07:04:16;;;;;;;24.63;14.57;;;1.40;94.40;;;;;;5008599;28;20096;-74
2020/12/26 07:06:46;;;;;;;23.03;14.07;;;1.40;94.50;;;;;;5010790;28;20112;-74
2020/12/26 07:09:14;;;;;;;24.00;14.27;;;1.50;94.50;;;;;;5010501;28;20037;-74
2020/12/26 07:11:44;;;;;;;24.10;14.60;;;1.50;94.50;;;;;;5010260;28;20120;-74
2020/12/26 07:14:28;;;;;;;23.30;13.95;;;1.50;94.50;;;;;;5009744;28;20076;-74
2020/12/26 07:16:54;;;;;;;23.77;12.83;;;1.50;94.50;;;;;;5010489;28;20053;-74
2020/12/26 07:19:21;;;;;;;21.67;13.47;;;1.60;94.50;;;;;;5010109;28;20539;-74
2020/12/26 07:21:51;;;;;;;22.37;12.40;;;1.60;94.50;;;;;;5008908;28;20060;-74
2020/12/26 07:24:37;;;;;;;21.58;13.13;;;1.60;94.50;;;;;;5009765;28;20038;-74
2020/12/26 07:27:21;;;;;;;21.53;12.43;;;1.60;94.50;;;;;;5003258;28;20038;-74
2020/12/26 07:30:00;;;;;;;24.03;12.37;;;1.60;94.50;;;;;;5010233;28;20045;-74
2020/12/26 07:33:04;;;;;;;21.07;13.03;;;1.60;94.60;;;;;;5011622;28;20049;-74
2020/12/26 07:35:33;;;;;;;22.67;12.43;;;1.60;94.60;;;;;;4994527;28;20419;-74
2020/12/26 07:38:07;;;;;;;21.87;12.37;;;1.60;94.60;;;;;;5011596;28;20120;-74
2020/12/26 07:40:34;;;;;;;18.80;12.77;;;1.70;94.70;;;;;;5010171;28;20038;-65
2020/12/26 07:43:03;;;;;;;21.20;12.73;;;1.70;94.70;;;;;;5013341;28;20026;-65
2020/12/26 07:45:30;;;;;;;20.80;12.10;;;1.70;94.70;;;;;;5012995;28;20132;-65
2020/12/26 07:47:58;;;;;;;21.67;11.20;;;1.70;94.70;;;;;;5013701;28;20044;-65
2020/12/26 07:50:27;;;;;;;23.13;11.17;;;1.80;94.70;;;;;;5013211;28;20034;-65
2020/12/26 07:52:54;;;;;;;19.03;10.43;;;1.80;94.70;;;;;;5013416;28;20042;-65
2020/12/26 07:55:23;;;;;;;20.30;10.48;;;1.80;94.70;;;;;;5013525;28;20490;-65
2020/12/26 07:57:57;;;;;;;19.50;10.60;;;1.80;94.70;;;;;;5013034;28;20089;-65
2020/12/26 08:00:27;;;;;;;17.63;10.00;;;1.90;94.70;;;;;;5013628;28;20038;-65
2020/12/26 08:02:56;;;;;;;18.05;9.88;;;1.90;94.70;;;;;;5013070;28;20066;-65
2020/12/26 08:05:23;;;;;;;20.83;9.90;;;1.90;94.70;;;;;;5012114;28;20034;-65
2020/12/26 08:07:49;;;;;;;16.27;9.27;;;1.90;94.70;;;;;;5013019;28;20045;-65
2020/12/26 08:10:16;;;;;;;19.70;9.30;;;2.00;94.80;;;;;;5012103;28;20052;-65
2020/12/26 08:12:52;;;;;;;17.90;9.00;;;2.00;94.80;;;;;;5012434;28;20033;-66
2020/12/26 08:15:20;;;;;;;14.47;8.50;;;2.00;94.80;;;;;;5013117;28;20046;-65
2020/12/26 08:17:47;;;;;;;20.87;8.30;;;2.00;94.70;;;;;;5013267;28;20100;-65
2020/12/26 08:20:15;;;;;;;15.97;8.27;;;2.10;94.80;;;;;;5013024;28;20057;-65
2020/12/26 08:22:44;;;;;;;18.57;8.57;;;2.10;94.70;;;;;;5012840;28;20126;-65
2020/12/26 08:25:11;;;;;;;14.00;8.33;;;2.20;94.80;;;;;;5011206;28;20037;-65
2020/12/26 08:27:38;;;;;;;13.63;7.33;;;2.20;94.80;;;;;;5011829;28;20069;-65
2020/12/26 08:30:07;;;;;;;12.70;7.17;;;2.20;94.80;;;;;;5011428;28;20128;-66
2020/12/26 08:32:54;;;;;;;16.80;7.30;;;2.30;94.80;;;;;;5011390;28;20092;-65
2020/12/26 08:35:21;;;;;;;16.50;7.10;;;2.30;94.70;;;;;;5012174;28;20038;-65
2020/12/26 08:38:05;;;;;;;11.77;6.73;;;2.30;94.70;;;;;;5012796;28;20091;-65
2020/12/26 08:40:35;;;;;;;14.27;6.90;;;2.30;94.90;;;;;;5012563;28;20482;-65
2020/12/26 08:43:02;;;;;;;14.13;6.80;;;2.40;94.80;;;;;;5012230;28;20038;-65
2020/12/26 08:45:30;;;;;;;11.23;6.10;;;2.40;94.80;;;;;;5012180;28;20114;-65
2020/12/26 08:47:59;;;;;;;14.63;6.40;;;2.40;94.80;;;;;;5012509;28;20497;-65
2020/12/26 08:50:26;;;;;;;14.13;6.50;;;2.50;94.80;;;;;;5012192;28;20033;-65
2020/12/26 08:53:10;;;;;;;13.47;6.20;;;2.50;94.80;;;;;;5012224;28;20046;-65
2020/12/26 08:55:53;;;;;;;11.83;5.63;;;2.60;94.70;;;;;;5010721;28;20037;-65
2020/12/26 08:58:28;;;;;;;15.60;5.40;;;2.50;94.70;;;;;;5012606;28;20041;-65
2020/12/26 09:00:55;;;;;;;12.17;5.30;;;2.60;94.70;;;;;;5012236;28;20034;-65
2020/12/26 09:03:23;;;;;;;13.63;5.23;;;2.60;94.70;;;;;;5012053;28;20034;-65
2020/12/26 09:05:49;;;;;;;11.37;5.50;;;2.60;94.70;;;;;;5011802;28;20034;-65
2020/12/26 09:08:15;;;;;;;15.10;5.50;;;2.60;94.70;;;;;;5010942;28;20038;-65
2020/12/26 09:10:41;;;;;;;13.77;5.40;;;2.60;94.70;;;;;;5011826;28;20041;-65
2020/12/26 09:13:10;;;;;;;13.60;5.70;;;2.60;94.70;;;;;;5010351;28;20390;-65
2020/12/26 09:15:55;;;;;;;14.40;5.20;;;2.70;94.70;;;;;;5010664;28;20038;-65
2020/12/26 09:18:24;;;;;;;13.13;5.53;;;2.70;94.60;;;;;;5011887;28;20038;-65
2020/12/26 09:20:59;;;;;;;13.80;5.33;;;2.70;94.60;;;;;;5011994;28;20053;-65
2020/12/26 09:23:34;;;;;;;10.93;5.23;;;2.70;94.50;;;;;;5011365;28;20033;-65
2020/12/26 09:26:21;;;;;;;13.20;5.30;;;2.70;94.50;;;;;;5010550;28;20406;-65
2020/12/26 09:28:56;;;;;;;11.37;4.50;;;2.70;94.50;;;;;;5011605;28;20057;-65
2020/12/26 09:31:23;;;;;;;11.27;5.03;;;2.70;94.60;;;;;;5009892;28;20046;-70
2020/12/26 09:33:50;;;;;;;10.07;4.90;;;2.70;94.70;;;;;;5010064;28;20042;-65
2020/12/26 09:36:18;;;;;;;15.87;5.00;;;2.70;94.70;;;;;;5011568;28;20045;-65
2020/12/26 09:38:44;;;;;;;17.73;5.53;;;2.80;94.70;;;;;;5009998;28;20058;-65
2020/12/26 09:41:14;;;;;;;14.50;5.53;;;2.80;94.60;;;;;;5010492;28;20080;-65
2020/12/26 09:43:41;;;;;;;12.75;5.35;;;2.80;94.70;;;;;;5010952;28;20049;-65
2020/12/26 09:46:07;;;;;;;10.53;5.50;;;2.80;94.60;;;;;;5011480;28;20029;-65
2020/12/26 09:48:33;;;;;;;14.47;5.63;;;2.90;94.70;;;;;;5010316;28;20553;-65
2020/12/26 09:50:59;;;;;;;10.43;5.07;;;2.90;94.70;;;;;;5011307;28;20099;-65
2020/12/26 09:53:26;;;;;;;12.27;5.37;;;3.00;94.70;;;;;;5011218;28;20128;-65
2020/12/26 09:55:51;;;;;;;13.80;5.90;;;3.00;94.70;;;;;;5010264;28;20046;-65
2020/12/26 09:58:17;;;;;;;13.77;5.50;;;3.00;94.80;;;;;;5011507;28;20049;-65
2020/12/26 10:00:44;;;;;;;13.47;5.63;;;3.10;94.80;;;;;;5011459;28;20033;-65
2020/12/26 10:03:10;;;;;;;12.77;5.97;;;3.10;94.70;;;;;;5009355;28;20041;-65
2020/12/26 10:05:35;;;;;;;12.20;5.27;;;3.20;94.60;;;;;;5011056;28;20513;-65
2020/12/26 10:08:01;;;;;;;12.30;6.10;;;3.20;94.60;;;;;;5011102;28;20045;-65
2020/12/26 10:10:27;;;;;;;10.63;4.50;;;3.20;94.60;;;;;;5011283;28;20128;-65
2020/12/26 10:12:52;;;;;;;10.47;4.87;;;3.20;94.50;;;;;;5010947;28;20061;-65
2020/12/26 10:15:18;;;;;;;14.80;5.50;;;3.20;94.50;;;;;;4992759;28;20038;-65
2020/12/26 10:17:45;;;;;;;10.93;5.17;;;3.30;94.60;;;;;;5011143;28;20034;-65
2020/12/26 10:20:11;;;;;;;12.10;5.23;;;3.30;94.50;;;;;;5010875;28;20448;-66
2020/12/26 10:22:36;;;;;;;12.53;5.17;;;3.30;94.40;;;;;;5009574;28;20034;-65
2020/12/26 10:25:02;;;;;;;13.63;6.10;;;3.30;94.40;;;;;;5010960;28;20046;-65
2020/12/26 10:27:28;;;;;;;12.67;5.23;;;3.30;94.40;;;;;;5010626;28;20030;-65
2020/12/26 10:29:54;;;;;;;12.70;5.73;;;3.40;94.30;;;;;;4993259;28;20403;-65
2020/12/26 10:32:19;;;;;;;9.07;5.20;;;3.30;94.40;;;;;;5010549;28;20048;-65
2020/12/26 10:34:45;;;;;;;14.53;6.00;;;3.40;94.40;;;;;;5010985;28;20125;-65
2020/12/26 10:37:15;;;;;;;12.70;6.00;;;3.40;94.30;;;;;;5011017;28;20042;-64
2020/12/26 10:39:42;;;;;;;12.90;5.55;;;3.40;94.30;;;;;;5010713;28;20096;-65
2020/12/26 10:42:08;;;;;;;11.53;5.50;;;3.40;94.20;;;;;;5009343;28;20129;-65
2020/12/26 10:44:34;;;;;;;14.53;5.83;;;3.40;94.20;;;;;;5010327;28;20113;-65
2020/12/26 10:46:59;;;;;;;10.67;6.00;;;3.50;94.10;;;;;;5010912;28;20053;-65
2020/12/26 10:49:25;;;;;;;16.47;5.83;;;3.40;94.10;;;;;;5009647;28;20061;-65
2020/12/26 10:51:51;;;;;;;10.83;5.90;;;3.40;94.10;;;;;;5010170;28;20050;-65
2020/12/26 10:54:16;;;;;;;14.23;5.63;;;3.50;94.10;;;;;;5010683;28;20517;-65
2020/12/26 10:56:49;;;;;;;10.83;5.40;;;3.40;93.90;;;;;;5010900;28;20504;-65
2020/12/26 10:59:15;;;;;;;12.43;5.63;;;3.40;94.00;;;;;;5010508;28;20045;-65
2020/12/26 11:01:41;;;;;;;12.07;5.80;;;3.40;94.00;;;;;;5010551;28;20496;-65
2020/12/26 11:04:07;;;;;;;11.97;5.60;;;3.40;94.10;;;;;;5010323;28;20130;-65
2020/12/26 11:06:33;;;;;;;10.60;5.40;;;3.40;94.00;;;;;;5010956;28;20108;-65
2020/12/26 11:08:59;;;;;;;15.33;5.87;;;3.40;94.10;;;;;;5014260;28;20133;-70
2020/12/26 11:11:25;;;;;;;13.90;5.13;;;3.50;94.10;;;;;;5014556;28;20124;-65
2020/12/26 11:13:51;;;;;;;13.87;5.67;;;3.60;94.10;;;;;;5013949;28;20042;-65
2020/12/26 11:16:18;;;;;;;11.97;5.37;;;3.60;94.10;;;;;;5013905;28;20464;-65
2020/12/26 11:18:45;;;;;;;9.93;4.97;;;3.70;94.10;;;;;;5013062;28;20117;-65
2020/12/26 11:21:17;;;;;;;13.23;5.23;;;3.70;94.00;;;;;;5013986;28;20041;-66
2020/12/26 11:23:43;;;;;;;12.53;5.37;;;3.80;93.90;;;;;;5014032;28;20054;-65
2020/12/26 11:26:12;;;;;;;12.13;5.50;;;3.80;93.80;;;;;;5012219;28;20037;-67
2020/12/26 11:28:39;;;;;;;14.73;6.03;;;3.90;93.80;;;;;;5013081;28;20045;-66
2020/12/26 11:31:05;;;;;;;10.87;5.90;;;3.90;93.70;;;;;;5014029;28;20095;-66
2020/12/26 11:33:31;;;;;;;12.83;5.57;;;3.90;93.80;;;;;;5012020;28;20041;-66
2020/12/26 11:35:57;;;;;;;11.20;5.33;;;3.90;93.80;;;;;;5012453;28;20037;-65
2020/12/26 11:38:23;;;;;;;14.20;6.50;;;4.00;93.80;;;;;;5012624;28;20041;-66
2020/12/26 11:40:49;;;;;;;10.67;6.10;;;4.10;93.80;;;;;;5012277;28;20042;-65
2020/12/26 11:43:15;;;;;;;13.73;6.30;;;4.20;93.70;;;;;;5013594;28;20042;-65
2020/12/26 11:45:40;;;;;;;10.37;5.90;;;4.30;93.40;;;;;;5013335;28;20125;-65
2020/12/26 11:48:06;;;;;;;13.07;6.70;;;4.30;93.30;;;;;;5012490;28;20065;-66
2020/12/26 11:50:32;;;;;;;11.37;6.60;;;4.20;93.20;;;;;;5013736;28;20137;-65
2020/12/26 11:52:58;;;;;;;13.47;6.90;;;4.20;93.20;;;;;;5013043;28;20037;-65
2020/12/26 11:55:24;;;;;;;12.63;6.63;;;4.20;93.20;;;;;;5013404;28;20026;-66
2020/12/26 11:57:49;;;;;;;12.53;7.43;;;4.20;93.10;;;;;;5011939;28;20034;-66
2020/12/26 12:00:15;;;;;;;12.37;7.03;;;4.10;93.10;;;;;;5012451;28;20034;-65
2020/12/26 12:02:41;;;;;;;14.10;7.57;;;4.10;93.10;;;;;;5013346;28;20049;-65
2020/12/26 12:05:07;;;;;;;13.03;7.37;;;4.10;93.20;;;;;;5012886;28;20030;-65
2020/12/26 12:07:32;;;;;;;16.23;8.17;;;4.10;93.10;;;;;;5013514;28;20029;-65
2020/12/26 12:09:58;;;;;;;12.77;7.67;;;4.10;93.20;;;;;;5013032;28;20042;-66
2020/12/26 12:12:25;;;;;;;16.93;7.53;;;4.10;93.10;;;;;;5012840;28;20491;-65
2020/12/26 12:14:51;;;;;;;13.47;7.70;;;4.10;93.10;;;;;;5013084;28;20046;-65
2020/12/26 12:17:17;;;;;;;16.50;7.70;;;4.10;93.30;;;;;;5012543;28;20033;-66
2020/12/26 12:19:43;;;;;;;16.30;7.80;;;4.20;93.30;;;;;;5012977;28;20030;-66
2020/12/26 12:22:09;;;;;;;15.40;7.93;;;4.30;93.20;;;;;;5011164;28;20172;-66
2020/12/26 12:24:34;;;;;;;15.13;7.70;;;4.30;93.10;;;;;;4995027;28;20564;-65
2020/12/26 12:27:00;;;;;;;15.17;7.80;;;4.30;93.10;;;;;;5013143;28;20034;-65
2020/12/26 12:29:26;;;;;;;16.23;8.63;;;4.40;92.90;;;;;;5012660;28;20100;-66
2020/12/26 12:31:52;;;;;;;15.17;8.70;;;4.40;92.90;;;;;;5012649;28;20430;-65
2020/12/26 12:34:17;;;;;;;14.83;8.27;;;4.40;92.80;;;;;;5012338;28;20411;-67
2020/12/26 12:36:43;;;;;;;13.90;8.37;;;4.40;92.80;;;;;;5012869;28;20034;-65
2020/12/26 12:39:09;;;;;;;15.13;8.93;;;4.40;92.70;;;;;;5012823;28;20038;-65
2020/12/26 12:41:34;;;;;;;17.70;8.87;;;4.30;92.80;;;;;;5012263;28;20442;-66
2020/12/26 12:44:00;;;;;;;16.67;8.30;;;4.30;92.70;;;;;;5012749;28;20060;-65